sensor_id;sensor_type;location;lat;lon;timestamp;P1;durP1;ratioP1;P2;durP2;ratioP2
73515;SDS011;61763;51.416;5.442;2023-12-20T00:00:56;9.70;;;1.33;;
73515;SDS011;61763;51.416;5.442;2023-12-20T00:03:21;14.85;;;1.48;;
73515;SDS011;61763;51.416;5.442;2023-12-20T00:05:47;13.90;;;1.40;;
73515;SDS011;61763;51.416;5.442;2023-12-20T00:08:13;9.93;;;1.73;;
73515;SDS011;61763;51.416;5.442;2023-12-20T00:10:38;4.88;;;0.82;;
73515;SDS011;61763;51.416;5.442;2023-12-20T00:13:04;12.13;;;1.23;;
73515;SDS011;61763;51.416;5.442;2023-12-20T00:15:29;5.90;;;0.98;;
73515;SDS011;61763;51.416;5.442;2023-12-20T00:17:54;5.85;;;0.77;;
73515;SDS011;61763;51.416;5.442;2023-12-20T00:20:20;6.50;;;1.10;;
73515;SDS011;61763;51.416;5.442;2023-12-20T00:22:45;8.65;;;0.93;;
73515;SDS011;61763;51.416;5.442;2023-12-20T00:25:11;7.35;;;1.25;;
73515;SDS011;61763;51.416;5.442;2023-12-20T00:27:36;8.63;;;1.23;;
73515;SDS011;61763;51.416;5.442;2023-12-20T00:30:02;9.93;;;1.35;;
73515;SDS011;61763;51.416;5.442;2023-12-20T00:32:27;11.38;;;0.63;;
73515;SDS011;61763;51.416;5.442;2023-12-20T00:34:52;9.80;;;0.93;;
73515;SDS011;61763;51.416;5.442;2023-12-20T00:37:18;15.43;;;1.60;;
73515;SDS011;61763;51.416;5.442;2023-12-20T00:39:43;7.53;;;1.30;;
73515;SDS011;61763;51.416;5.442;2023-12-20T00:42:09;4.25;;;0.60;;
73515;SDS011;61763;51.416;5.442;2023-12-20T00:44:34;17.48;;;1.35;;
73515;SDS011;61763;51.416;5.442;2023-12-20T00:46:59;7.45;;;0.95;;
73515;SDS011;61763;51.416;5.442;2023-12-20T00:49:26;17.10;;;1.20;;
73515;SDS011;61763;51.416;5.442;2023-12-20T00:51:51;15.73;;;1.80;;
73515;SDS011;61763;51.416;5.442;2023-12-20T00:54:17;10.15;;;0.95;;
73515;SDS011;61763;51.416;5.442;2023-12-20T00:56:43;14.77;;;1.25;;
73515;SDS011;61763;51.416;5.442;2023-12-20T00:59:08;7.43;;;1.58;;
73515;SDS011;61763;51.416;5.442;2023-12-20T01:01:34;11.68;;;1.90;;
73515;SDS011;61763;51.416;5.442;2023-12-20T01:03:59;11.57;;;1.75;;
73515;SDS011;61763;51.416;5.442;2023-12-20T01:06:25;14.82;;;2.10;;
73515;SDS011;61763;51.416;5.442;2023-12-20T01:08:50;10.02;;;1.42;;
73515;SDS011;61763;51.416;5.442;2023-12-20T01:11:15;7.78;;;1.63;;
73515;SDS011;61763;51.416;5.442;2023-12-20T01:13:41;10.70;;;1.73;;
73515;SDS011;61763;51.416;5.442;2023-12-20T01:16:10;14.02;;;1.90;;
73515;SDS011;61763;51.416;5.442;2023-12-20T01:18:37;10.15;;;1.65;;
73515;SDS011;61763;51.416;5.442;2023-12-20T01:21:03;12.13;;;2.08;;
73515;SDS011;61763;51.416;5.442;2023-12-20T01:23:30;12.25;;;1.67;;
73515;SDS011;61763;51.416;5.442;2023-12-20T01:25:56;15.45;;;2.03;;
73515;SDS011;61763;51.416;5.442;2023-12-20T01:28:21;11.65;;;2.15;;
73515;SDS011;61763;51.416;5.442;2023-12-20T01:30:47;12.00;;;2.15;;
73515;SDS011;61763;51.416;5.442;2023-12-20T01:33:12;13.60;;;2.08;;
73515;SDS011;61763;51.416;5.442;2023-12-20T01:35:38;13.13;;;1.85;;
73515;SDS011;61763;51.416;5.442;2023-12-20T01:38:03;12.23;;;1.00;;
73515;SDS011;61763;51.416;5.442;2023-12-20T01:40:28;12.23;;;1.27;;
73515;SDS011;61763;51.416;5.442;2023-12-20T01:43:01;9.55;;;1.15;;
73515;SDS011;61763;51.416;5.442;2023-12-20T01:45:27;10.02;;;1.13;;
73515;SDS011;61763;51.416;5.442;2023-12-20T01:47:54;8.20;;;0.85;;
73515;SDS011;61763;51.416;5.442;2023-12-20T01:50:21;13.38;;;1.92;;
73515;SDS011;61763;51.416;5.442;2023-12-20T01:52:48;9.88;;;1.50;;
73515;SDS011;61763;51.416;5.442;2023-12-20T01:55:17;14.05;;;1.58;;
73515;SDS011;61763;51.416;5.442;2023-12-20T01:57:44;17.58;;;1.70;;
73515;SDS011;61763;51.416;5.442;2023-12-20T02:00:10;6.40;;;1.38;;
73515;SDS011;61763;51.416;5.442;2023-12-20T02:02:39;11.57;;;1.48;;
73515;SDS011;61763;51.416;5.442;2023-12-20T02:05:05;8.07;;;1.13;;
73515;SDS011;61763;51.416;5.442;2023-12-20T02:07:31;8.07;;;1.10;;
73515;SDS011;61763;51.416;5.442;2023-12-20T02:09:57;7.90;;;1.45;;
73515;SDS011;61763;51.416;5.442;2023-12-20T02:12:22;12.30;;;1.25;;
73515;SDS011;61763;51.416;5.442;2023-12-20T02:14:48;5.95;;;0.68;;
73515;SDS011;61763;51.416;5.442;2023-12-20T02:17:14;11.13;;;1.15;;
73515;SDS011;61763;51.416;5.442;2023-12-20T02:19:41;10.73;;;0.85;;
73515;SDS011;61763;51.416;5.442;2023-12-20T02:24:36;11.20;;;1.30;;
73515;SDS011;61763;51.416;5.442;2023-12-20T02:27:02;13.40;;;1.67;;
73515;SDS011;61763;51.416;5.442;2023-12-20T02:29:28;10.80;;;1.02;;
73515;SDS011;61763;51.416;5.442;2023-12-20T02:31:53;12.27;;;0.98;;
73515;SDS011;61763;51.416;5.442;2023-12-20T02:34:18;6.97;;;0.73;;
73515;SDS011;61763;51.416;5.442;2023-12-20T02:36:44;7.03;;;1.27;;
73515;SDS011;61763;51.416;5.442;2023-12-20T02:39:09;15.23;;;1.75;;
73515;SDS011;61763;51.416;5.442;2023-12-20T02:41:35;8.65;;;1.45;;
73515;SDS011;61763;51.416;5.442;2023-12-20T02:44:01;17.08;;;1.65;;
73515;SDS011;61763;51.416;5.442;2023-12-20T02:46:27;9.45;;;1.85;;
73515;SDS011;61763;51.416;5.442;2023-12-20T02:48:52;12.07;;;1.70;;
73515;SDS011;61763;51.416;5.442;2023-12-20T02:51:17;16.20;;;2.33;;
73515;SDS011;61763;51.416;5.442;2023-12-20T02:53:43;20.52;;;2.20;;
73515;SDS011;61763;51.416;5.442;2023-12-20T02:56:08;8.27;;;1.58;;
73515;SDS011;61763;51.416;5.442;2023-12-20T02:58:34;14.73;;;1.70;;
73515;SDS011;61763;51.416;5.442;2023-12-20T03:00:59;12.82;;;2.20;;
73515;SDS011;61763;51.416;5.442;2023-12-20T03:03:25;14.75;;;2.25;;
73515;SDS011;61763;51.416;5.442;2023-12-20T03:05:50;10.48;;;2.22;;
73515;SDS011;61763;51.416;5.442;2023-12-20T03:08:16;9.38;;;1.42;;
73515;SDS011;61763;51.416;5.442;2023-12-20T03:10:42;12.20;;;2.88;;
73515;SDS011;61763;51.416;5.442;2023-12-20T03:13:07;12.07;;;2.65;;
73515;SDS011;61763;51.416;5.442;2023-12-20T03:15:33;13.27;;;1.80;;
73515;SDS011;61763;51.416;5.442;2023-12-20T03:17:58;18.92;;;1.85;;
73515;SDS011;61763;51.416;5.442;2023-12-20T03:20:24;11.50;;;1.92;;
73515;SDS011;61763;51.416;5.442;2023-12-20T03:22:51;11.70;;;2.30;;
73515;SDS011;61763;51.416;5.442;2023-12-20T03:25:17;13.40;;;2.03;;
73515;SDS011;61763;51.416;5.442;2023-12-20T03:27:42;14.70;;;2.20;;
73515;SDS011;61763;51.416;5.442;2023-12-20T03:30:08;10.93;;;1.55;;
73515;SDS011;61763;51.416;5.442;2023-12-20T03:32:34;9.98;;;1.75;;
73515;SDS011;61763;51.416;5.442;2023-12-20T03:34:59;19.60;;;3.22;;
73515;SDS011;61763;51.416;5.442;2023-12-20T03:37:24;16.40;;;3.00;;
73515;SDS011;61763;51.416;5.442;2023-12-20T03:39:50;10.57;;;2.63;;
73515;SDS011;61763;51.416;5.442;2023-12-20T03:42:15;16.35;;;3.05;;
73515;SDS011;61763;51.416;5.442;2023-12-20T03:44:40;21.13;;;2.63;;
73515;SDS011;61763;51.416;5.442;2023-12-20T03:47:06;20.77;;;2.60;;
73515;SDS011;61763;51.416;5.442;2023-12-20T03:49:32;15.90;;;1.60;;
73515;SDS011;61763;51.416;5.442;2023-12-20T03:51:57;21.77;;;2.90;;
73515;SDS011;61763;51.416;5.442;2023-12-20T03:54:22;17.92;;;2.10;;
73515;SDS011;61763;51.416;5.442;2023-12-20T03:56:48;12.50;;;2.10;;
73515;SDS011;61763;51.416;5.442;2023-12-20T03:59:14;7.78;;;1.58;;
73515;SDS011;61763;51.416;5.442;2023-12-20T04:01:42;11.68;;;2.67;;
73515;SDS011;61763;51.416;5.442;2023-12-20T04:04:09;17.98;;;2.00;;
73515;SDS011;61763;51.416;5.442;2023-12-20T04:06:35;16.23;;;2.47;;
73515;SDS011;61763;51.416;5.442;2023-12-20T04:09:00;11.23;;;2.17;;
73515;SDS011;61763;51.416;5.442;2023-12-20T04:11:26;11.55;;;2.08;;
73515;SDS011;61763;51.416;5.442;2023-12-20T04:13:51;12.13;;;2.22;;
73515;SDS011;61763;51.416;5.442;2023-12-20T04:16:16;13.38;;;2.00;;
73515;SDS011;61763;51.416;5.442;2023-12-20T04:18:42;9.73;;;2.03;;
73515;SDS011;61763;51.416;5.442;2023-12-20T04:21:07;17.90;;;2.35;;
73515;SDS011;61763;51.416;5.442;2023-12-20T04:23:32;11.35;;;2.25;;
73515;SDS011;61763;51.416;5.442;2023-12-20T04:25:58;17.42;;;2.08;;
73515;SDS011;61763;51.416;5.442;2023-12-20T04:28:23;16.80;;;2.67;;
73515;SDS011;61763;51.416;5.442;2023-12-20T04:30:49;13.20;;;2.33;;
73515;SDS011;61763;51.416;5.442;2023-12-20T04:33:14;11.52;;;2.00;;
73515;SDS011;61763;51.416;5.442;2023-12-20T04:35:39;15.20;;;2.92;;
73515;SDS011;61763;51.416;5.442;2023-12-20T04:38:06;15.85;;;2.10;;
73515;SDS011;61763;51.416;5.442;2023-12-20T04:40:31;9.82;;;1.98;;
73515;SDS011;61763;51.416;5.442;2023-12-20T04:42:57;16.63;;;2.10;;
73515;SDS011;61763;51.416;5.442;2023-12-20T04:45:22;17.40;;;2.80;;
73515;SDS011;61763;51.416;5.442;2023-12-20T04:47:49;15.85;;;2.35;;
73515;SDS011;61763;51.416;5.442;2023-12-20T04:50:15;11.02;;;2.00;;
73515;SDS011;61763;51.416;5.442;2023-12-20T04:52:40;15.23;;;2.97;;
73515;SDS011;61763;51.416;5.442;2023-12-20T04:55:06;12.68;;;3.00;;
73515;SDS011;61763;51.416;5.442;2023-12-20T04:57:32;16.73;;;2.75;;
73515;SDS011;61763;51.416;5.442;2023-12-20T04:59:57;11.00;;;1.85;;
73515;SDS011;61763;51.416;5.442;2023-12-20T05:02:22;11.10;;;2.10;;
73515;SDS011;61763;51.416;5.442;2023-12-20T05:04:48;8.70;;;2.15;;
73515;SDS011;61763;51.416;5.442;2023-12-20T05:07:13;10.80;;;1.77;;
73515;SDS011;61763;51.416;5.442;2023-12-20T05:09:38;19.38;;;2.97;;
73515;SDS011;61763;51.416;5.442;2023-12-20T05:12:04;11.02;;;1.98;;
73515;SDS011;61763;51.416;5.442;2023-12-20T05:14:30;16.77;;;2.60;;
73515;SDS011;61763;51.416;5.442;2023-12-20T05:16:55;18.60;;;2.55;;
73515;SDS011;61763;51.416;5.442;2023-12-20T05:19:21;12.82;;;1.85;;
73515;SDS011;61763;51.416;5.442;2023-12-20T05:21:47;11.93;;;2.05;;
73515;SDS011;61763;51.416;5.442;2023-12-20T05:24:12;14.70;;;2.25;;
73515;SDS011;61763;51.416;5.442;2023-12-20T05:26:37;21.40;;;2.83;;
73515;SDS011;61763;51.416;5.442;2023-12-20T05:29:03;9.27;;;2.08;;
73515;SDS011;61763;51.416;5.442;2023-12-20T05:31:28;12.60;;;2.08;;
73515;SDS011;61763;51.416;5.442;2023-12-20T05:33:53;15.38;;;1.85;;
73515;SDS011;61763;51.416;5.442;2023-12-20T05:36:19;10.07;;;1.73;;
73515;SDS011;61763;51.416;5.442;2023-12-20T05:38:44;12.27;;;1.55;;
73515;SDS011;61763;51.416;5.442;2023-12-20T05:41:10;11.15;;;1.40;;
73515;SDS011;61763;51.416;5.442;2023-12-20T05:43:35;9.00;;;1.75;;
73515;SDS011;61763;51.416;5.442;2023-12-20T05:46:00;11.07;;;2.08;;
73515;SDS011;61763;51.416;5.442;2023-12-20T05:48:26;16.23;;;2.55;;
73515;SDS011;61763;51.416;5.442;2023-12-20T05:50:52;11.57;;;1.67;;
73515;SDS011;61763;51.416;5.442;2023-12-20T05:53:18;9.38;;;1.60;;
73515;SDS011;61763;51.416;5.442;2023-12-20T05:55:43;14.63;;;2.08;;
73515;SDS011;61763;51.416;5.442;2023-12-20T05:58:08;10.98;;;1.55;;
73515;SDS011;61763;51.416;5.442;2023-12-20T06:00:34;12.07;;;1.98;;
73515;SDS011;61763;51.416;5.442;2023-12-20T06:02:59;9.90;;;1.50;;
73515;SDS011;61763;51.416;5.442;2023-12-20T06:05:24;12.60;;;1.55;;
73515;SDS011;61763;51.416;5.442;2023-12-20T06:07:50;4.82;;;1.20;;
73515;SDS011;61763;51.416;5.442;2023-12-20T06:10:16;14.70;;;1.70;;
73515;SDS011;61763;51.416;5.442;2023-12-20T06:12:41;13.20;;;1.73;;
73515;SDS011;61763;51.416;5.442;2023-12-20T06:15:07;8.23;;;2.10;;
73515;SDS011;61763;51.416;5.442;2023-12-20T06:17:33;12.40;;;1.42;;
73515;SDS011;61763;51.416;5.442;2023-12-20T06:19:59;13.55;;;1.80;;
73515;SDS011;61763;51.416;5.442;2023-12-20T06:22:25;16.45;;;2.00;;
73515;SDS011;61763;51.416;5.442;2023-12-20T06:24:50;12.15;;;1.65;;
73515;SDS011;61763;51.416;5.442;2023-12-20T06:27:16;11.30;;;1.20;;
73515;SDS011;61763;51.416;5.442;2023-12-20T06:29:41;10.73;;;1.48;;
73515;SDS011;61763;51.416;5.442;2023-12-20T06:32:09;10.60;;;1.23;;
73515;SDS011;61763;51.416;5.442;2023-12-20T06:34:34;13.48;;;2.05;;
73515;SDS011;61763;51.416;5.442;2023-12-20T06:37:00;13.88;;;1.98;;
73515;SDS011;61763;51.416;5.442;2023-12-20T06:39:25;16.58;;;1.85;;
73515;SDS011;61763;51.416;5.442;2023-12-20T06:41:51;13.40;;;1.27;;
73515;SDS011;61763;51.416;5.442;2023-12-20T06:44:16;13.02;;;2.33;;
73515;SDS011;61763;51.416;5.442;2023-12-20T06:46:42;12.15;;;1.65;;
73515;SDS011;61763;51.416;5.442;2023-12-20T06:49:07;15.88;;;2.05;;
73515;SDS011;61763;51.416;5.442;2023-12-20T06:51:33;10.93;;;1.42;;
73515;SDS011;61763;51.416;5.442;2023-12-20T06:53:58;8.60;;;0.95;;
73515;SDS011;61763;51.416;5.442;2023-12-20T06:56:25;13.00;;;1.20;;
73515;SDS011;61763;51.416;5.442;2023-12-20T06:58:50;10.70;;;1.90;;
73515;SDS011;61763;51.416;5.442;2023-12-20T07:01:15;9.77;;;1.23;;
73515;SDS011;61763;51.416;5.442;2023-12-20T07:03:41;10.95;;;1.52;;
73515;SDS011;61763;51.416;5.442;2023-12-20T07:06:07;14.63;;;1.80;;
73515;SDS011;61763;51.416;5.442;2023-12-20T07:08:33;16.50;;;1.55;;
73515;SDS011;61763;51.416;5.442;2023-12-20T07:10:58;14.30;;;1.77;;
73515;SDS011;61763;51.416;5.442;2023-12-20T07:13:24;13.13;;;2.03;;
73515;SDS011;61763;51.416;5.442;2023-12-20T07:15:49;11.93;;;1.50;;
73515;SDS011;61763;51.416;5.442;2023-12-20T07:18:15;8.73;;;0.93;;
73515;SDS011;61763;51.416;5.442;2023-12-20T07:20:40;21.27;;;2.22;;
73515;SDS011;61763;51.416;5.442;2023-12-20T07:23:06;13.63;;;1.48;;
73515;SDS011;61763;51.416;5.442;2023-12-20T07:25:31;12.80;;;1.40;;
73515;SDS011;61763;51.416;5.442;2023-12-20T07:27:57;12.57;;;1.45;;
73515;SDS011;61763;51.416;5.442;2023-12-20T07:30:23;20.25;;;1.77;;
73515;SDS011;61763;51.416;5.442;2023-12-20T07:32:48;12.27;;;1.52;;
73515;SDS011;61763;51.416;5.442;2023-12-20T07:35:15;15.07;;;2.17;;
73515;SDS011;61763;51.416;5.442;2023-12-20T07:37:41;10.82;;;1.17;;
73515;SDS011;61763;51.416;5.442;2023-12-20T07:40:06;12.75;;;1.83;;
73515;SDS011;61763;51.416;5.442;2023-12-20T07:42:32;14.00;;;1.60;;
73515;SDS011;61763;51.416;5.442;2023-12-20T07:44:58;9.90;;;1.25;;
73515;SDS011;61763;51.416;5.442;2023-12-20T07:47:24;6.28;;;0.90;;
73515;SDS011;61763;51.416;5.442;2023-12-20T07:49:50;8.90;;;1.50;;
73515;SDS011;61763;51.416;5.442;2023-12-20T07:52:17;13.48;;;1.58;;
73515;SDS011;61763;51.416;5.442;2023-12-20T07:54:43;12.80;;;1.73;;
73515;SDS011;61763;51.416;5.442;2023-12-20T07:57:09;6.35;;;1.05;;
73515;SDS011;61763;51.416;5.442;2023-12-20T07:59:35;8.00;;;1.30;;
73515;SDS011;61763;51.416;5.442;2023-12-20T08:02:01;15.15;;;1.52;;
73515;SDS011;61763;51.416;5.442;2023-12-20T08:04:26;14.55;;;2.08;;
73515;SDS011;61763;51.416;5.442;2023-12-20T08:06:52;10.35;;;1.45;;
73515;SDS011;61763;51.416;5.442;2023-12-20T08:09:18;9.25;;;1.20;;
73515;SDS011;61763;51.416;5.442;2023-12-20T08:11:45;9.45;;;1.77;;
73515;SDS011;61763;51.416;5.442;2023-12-20T08:14:10;8.98;;;1.58;;
73515;SDS011;61763;51.416;5.442;2023-12-20T08:16:36;11.88;;;1.75;;
73515;SDS011;61763;51.416;5.442;2023-12-20T08:19:02;7.63;;;1.00;;
73515;SDS011;61763;51.416;5.442;2023-12-20T08:21:27;11.30;;;1.77;;
73515;SDS011;61763;51.416;5.442;2023-12-20T08:23:52;8.38;;;1.73;;
73515;SDS011;61763;51.416;5.442;2023-12-20T08:26:18;9.63;;;1.38;;
73515;SDS011;61763;51.416;5.442;2023-12-20T08:28:45;10.38;;;1.33;;
73515;SDS011;61763;51.416;5.442;2023-12-20T08:31:14;11.52;;;1.40;;
73515;SDS011;61763;51.416;5.442;2023-12-20T08:33:44;12.65;;;1.45;;
73515;SDS011;61763;51.416;5.442;2023-12-20T08:36:10;10.77;;;1.02;;
73515;SDS011;61763;51.416;5.442;2023-12-20T08:38:36;14.38;;;1.73;;
73515;SDS011;61763;51.416;5.442;2023-12-20T08:41:02;10.68;;;1.23;;
73515;SDS011;61763;51.416;5.442;2023-12-20T08:43:30;6.80;;;1.23;;
73515;SDS011;61763;51.416;5.442;2023-12-20T08:46:05;19.10;;;1.90;;
73515;SDS011;61763;51.416;5.442;2023-12-20T08:48:31;13.68;;;1.95;;
73515;SDS011;61763;51.416;5.442;2023-12-20T08:50:56;7.70;;;1.30;;
73515;SDS011;61763;51.416;5.442;2023-12-20T08:53:22;5.47;;;0.90;;
73515;SDS011;61763;51.416;5.442;2023-12-20T08:55:47;9.88;;;0.90;;
73515;SDS011;61763;51.416;5.442;2023-12-20T08:58:13;8.93;;;1.40;;
73515;SDS011;61763;51.416;5.442;2023-12-20T09:00:39;15.02;;;1.70;;
73515;SDS011;61763;51.416;5.442;2023-12-20T09:03:04;7.55;;;1.45;;
73515;SDS011;61763;51.416;5.442;2023-12-20T09:05:30;13.65;;;1.40;;
73515;SDS011;61763;51.416;5.442;2023-12-20T09:07:55;11.07;;;1.48;;
73515;SDS011;61763;51.416;5.442;2023-12-20T09:10:21;8.50;;;1.23;;
73515;SDS011;61763;51.416;5.442;2023-12-20T09:12:47;9.68;;;1.15;;
73515;SDS011;61763;51.416;5.442;2023-12-20T09:15:14;12.05;;;1.45;;
73515;SDS011;61763;51.416;5.442;2023-12-20T09:17:40;9.68;;;0.85;;
73515;SDS011;61763;51.416;5.442;2023-12-20T09:20:06;8.68;;;1.65;;
73515;SDS011;61763;51.416;5.442;2023-12-20T09:22:33;17.48;;;1.58;;
73515;SDS011;61763;51.416;5.442;2023-12-20T09:24:59;8.80;;;1.17;;
73515;SDS011;61763;51.416;5.442;2023-12-20T09:27:24;20.98;;;1.80;;
73515;SDS011;61763;51.416;5.442;2023-12-20T09:29:49;8.80;;;1.42;;
73515;SDS011;61763;51.416;5.442;2023-12-20T09:32:15;13.43;;;1.90;;
73515;SDS011;61763;51.416;5.442;2023-12-20T09:34:40;9.02;;;1.00;;
73515;SDS011;61763;51.416;5.442;2023-12-20T09:37:06;12.15;;;1.63;;
73515;SDS011;61763;51.416;5.442;2023-12-20T09:39:32;20.33;;;1.65;;
73515;SDS011;61763;51.416;5.442;2023-12-20T09:42:02;9.80;;;1.30;;
73515;SDS011;61763;51.416;5.442;2023-12-20T09:44:29;8.73;;;1.17;;
73515;SDS011;61763;51.416;5.442;2023-12-20T09:46:55;6.40;;;0.98;;
73515;SDS011;61763;51.416;5.442;2023-12-20T09:49:22;11.80;;;1.30;;
73515;SDS011;61763;51.416;5.442;2023-12-20T09:51:48;8.02;;;1.30;;
73515;SDS011;61763;51.416;5.442;2023-12-20T09:54:18;11.77;;;1.70;;
73515;SDS011;61763;51.416;5.442;2023-12-20T09:56:45;7.90;;;1.17;;
73515;SDS011;61763;51.416;5.442;2023-12-20T09:59:11;7.50;;;1.15;;
73515;SDS011;61763;51.416;5.442;2023-12-20T10:01:36;11.43;;;1.38;;
73515;SDS011;61763;51.416;5.442;2023-12-20T10:04:05;10.38;;;1.63;;
73515;SDS011;61763;51.416;5.442;2023-12-20T10:06:36;11.20;;;0.98;;
73515;SDS011;61763;51.416;5.442;2023-12-20T10:09:01;11.20;;;1.40;;
73515;SDS011;61763;51.416;5.442;2023-12-20T10:11:27;11.70;;;1.10;;
73515;SDS011;61763;51.416;5.442;2023-12-20T10:13:58;9.57;;;1.27;;
73515;SDS011;61763;51.416;5.442;2023-12-20T10:16:27;11.18;;;1.25;;
73515;SDS011;61763;51.416;5.442;2023-12-20T10:18:53;14.98;;;1.35;;
73515;SDS011;61763;51.416;5.442;2023-12-20T10:21:19;5.22;;;1.58;;
73515;SDS011;61763;51.416;5.442;2023-12-20T10:23:45;17.70;;;1.60;;
73515;SDS011;61763;51.416;5.442;2023-12-20T10:26:18;10.05;;;1.50;;
73515;SDS011;61763;51.416;5.442;2023-12-20T10:28:45;7.03;;;0.75;;
73515;SDS011;61763;51.416;5.442;2023-12-20T10:31:12;12.55;;;1.20;;
73515;SDS011;61763;51.416;5.442;2023-12-20T10:33:51;6.93;;;1.30;;
73515;SDS011;61763;51.416;5.442;2023-12-20T10:36:16;8.68;;;1.50;;
73515;SDS011;61763;51.416;5.442;2023-12-20T10:38:42;7.43;;;1.20;;
73515;SDS011;61763;51.416;5.442;2023-12-20T10:41:07;4.88;;;0.52;;
73515;SDS011;61763;51.416;5.442;2023-12-20T10:43:34;8.65;;;1.52;;
73515;SDS011;61763;51.416;5.442;2023-12-20T10:46:02;11.70;;;1.63;;
73515;SDS011;61763;51.416;5.442;2023-12-20T10:48:28;6.18;;;1.23;;
73515;SDS011;61763;51.416;5.442;2023-12-20T10:50:55;8.27;;;1.50;;
73515;SDS011;61763;51.416;5.442;2023-12-20T10:53:21;10.65;;;1.70;;
73515;SDS011;61763;51.416;5.442;2023-12-20T10:55:48;7.20;;;0.98;;
73515;SDS011;61763;51.416;5.442;2023-12-20T10:58:17;10.63;;;1.77;;
73515;SDS011;61763;51.416;5.442;2023-12-20T11:00:45;11.23;;;1.20;;
73515;SDS011;61763;51.416;5.442;2023-12-20T11:03:12;8.10;;;1.50;;
73515;SDS011;61763;51.416;5.442;2023-12-20T11:05:50;7.55;;;1.65;;
73515;SDS011;61763;51.416;5.442;2023-12-20T11:08:30;13.18;;;1.80;;
73515;SDS011;61763;51.416;5.442;2023-12-20T11:11:05;12.18;;;1.58;;
73515;SDS011;61763;51.416;5.442;2023-12-20T11:13:40;9.48;;;1.60;;
73515;SDS011;61763;51.416;5.442;2023-12-20T11:16:13;11.63;;;1.80;;
73515;SDS011;61763;51.416;5.442;2023-12-20T11:18:38;12.80;;;1.70;;
73515;SDS011;61763;51.416;5.442;2023-12-20T11:21:05;8.98;;;1.70;;
73515;SDS011;61763;51.416;5.442;2023-12-20T11:23:33;6.80;;;0.80;;
73515;SDS011;61763;51.416;5.442;2023-12-20T11:25:59;13.60;;;2.30;;
73515;SDS011;61763;51.416;5.442;2023-12-20T11:28:27;10.00;;;1.27;;
73515;SDS011;61763;51.416;5.442;2023-12-20T11:33:25;14.13;;;0.98;;
73515;SDS011;61763;51.416;5.442;2023-12-20T11:35:57;15.05;;;1.52;;
73515;SDS011;61763;51.416;5.442;2023-12-20T11:38:25;5.70;;;0.95;;
73515;SDS011;61763;51.416;5.442;2023-12-20T11:40:51;8.10;;;1.38;;
73515;SDS011;61763;51.416;5.442;2023-12-20T11:43:30;12.07;;;2.25;;
73515;SDS011;61763;51.416;5.442;2023-12-20T11:46:03;12.85;;;1.92;;
73515;SDS011;61763;51.416;5.442;2023-12-20T11:48:32;18.98;;;2.40;;
73515;SDS011;61763;51.416;5.442;2023-12-20T11:50:59;6.57;;;1.10;;
73515;SDS011;61763;51.416;5.442;2023-12-20T11:53:25;6.70;;;1.75;;
73515;SDS011;61763;51.416;5.442;2023-12-20T11:55:50;8.82;;;1.73;;
73515;SDS011;61763;51.416;5.442;2023-12-20T11:58:16;10.77;;;1.75;;
73515;SDS011;61763;51.416;5.442;2023-12-20T12:00:42;10.40;;;1.50;;
73515;SDS011;61763;51.416;5.442;2023-12-20T12:03:08;10.25;;;1.77;;
73515;SDS011;61763;51.416;5.442;2023-12-20T12:05:34;7.43;;;1.35;;
73515;SDS011;61763;51.416;5.442;2023-12-20T12:08:00;14.85;;;1.65;;
73515;SDS011;61763;51.416;5.442;2023-12-20T12:10:26;17.38;;;2.45;;
73515;SDS011;61763;51.416;5.442;2023-12-20T12:12:51;13.18;;;1.98;;
73515;SDS011;61763;51.416;5.442;2023-12-20T12:15:17;13.82;;;2.17;;
73515;SDS011;61763;51.416;5.442;2023-12-20T12:17:42;13.38;;;1.73;;
73515;SDS011;61763;51.416;5.442;2023-12-20T12:20:08;9.35;;;1.98;;
73515;SDS011;61763;51.416;5.442;2023-12-20T12:22:35;10.68;;;2.10;;
73515;SDS011;61763;51.416;5.442;2023-12-20T12:27:35;10.55;;;1.90;;
73515;SDS011;61763;51.416;5.442;2023-12-20T12:30:01;14.52;;;2.08;;
73515;SDS011;61763;51.416;5.442;2023-12-20T12:32:28;12.60;;;1.73;;
73515;SDS011;61763;51.416;5.442;2023-12-20T12:34:54;9.27;;;2.13;;
73515;SDS011;61763;51.416;5.442;2023-12-20T12:37:19;13.40;;;2.30;;
73515;SDS011;61763;51.416;5.442;2023-12-20T12:39:46;13.45;;;1.90;;
73515;SDS011;61763;51.416;5.442;2023-12-20T12:42:11;9.13;;;2.75;;
73515;SDS011;61763;51.416;5.442;2023-12-20T12:44:37;9.48;;;2.00;;
73515;SDS011;61763;51.416;5.442;2023-12-20T12:47:02;8.45;;;2.38;;
73515;SDS011;61763;51.416;5.442;2023-12-20T12:49:28;7.53;;;2.28;;
73515;SDS011;61763;51.416;5.442;2023-12-20T12:51:54;14.30;;;3.10;;
73515;SDS011;61763;51.416;5.442;2023-12-20T12:54:23;12.80;;;3.60;;
73515;SDS011;61763;51.416;5.442;2023-12-20T12:56:48;10.02;;;2.80;;
73515;SDS011;61763;51.416;5.442;2023-12-20T12:59:14;10.75;;;3.10;;
73515;SDS011;61763;51.416;5.442;2023-12-20T13:01:40;12.30;;;2.85;;
73515;SDS011;61763;51.416;5.442;2023-12-20T13:04:05;14.10;;;3.63;;
73515;SDS011;61763;51.416;5.442;2023-12-20T13:06:35;13.65;;;3.65;;
73515;SDS011;61763;51.416;5.442;2023-12-20T13:09:04;10.45;;;2.85;;
73515;SDS011;61763;51.416;5.442;2023-12-20T13:11:30;7.55;;;2.13;;
73515;SDS011;61763;51.416;5.442;2023-12-20T13:13:56;11.10;;;2.72;;
73515;SDS011;61763;51.416;5.442;2023-12-20T13:16:23;14.00;;;2.75;;
73515;SDS011;61763;51.416;5.442;2023-12-20T13:18:49;13.32;;;3.00;;
73515;SDS011;61763;51.416;5.442;2023-12-20T13:21:15;13.63;;;3.15;;
73515;SDS011;61763;51.416;5.442;2023-12-20T13:23:41;13.38;;;3.17;;
73515;SDS011;61763;51.416;5.442;2023-12-20T13:26:06;12.80;;;3.08;;
73515;SDS011;61763;51.416;5.442;2023-12-20T13:28:32;8.38;;;2.35;;
73515;SDS011;61763;51.416;5.442;2023-12-20T13:30:58;14.80;;;3.00;;
73515;SDS011;61763;51.416;5.442;2023-12-20T13:33:23;8.63;;;2.72;;
73515;SDS011;61763;51.416;5.442;2023-12-20T13:35:48;12.73;;;1.88;;
73515;SDS011;61763;51.416;5.442;2023-12-20T13:38:14;15.57;;;2.58;;
73515;SDS011;61763;51.416;5.442;2023-12-20T13:40:39;13.35;;;2.72;;
73515;SDS011;61763;51.416;5.442;2023-12-20T13:43:05;8.95;;;2.15;;
73515;SDS011;61763;51.416;5.442;2023-12-20T13:45:31;11.52;;;2.25;;
73515;SDS011;61763;51.416;5.442;2023-12-20T13:47:56;14.65;;;2.90;;
73515;SDS011;61763;51.416;5.442;2023-12-20T13:50:21;11.10;;;1.75;;
73515;SDS011;61763;51.416;5.442;2023-12-20T13:52:47;10.55;;;2.60;;
73515;SDS011;61763;51.416;5.442;2023-12-20T13:55:13;12.85;;;2.88;;
73515;SDS011;61763;51.416;5.442;2023-12-20T13:57:38;10.55;;;2.95;;
73515;SDS011;61763;51.416;5.442;2023-12-20T14:00:05;10.98;;;2.38;;
73515;SDS011;61763;51.416;5.442;2023-12-20T14:02:31;9.07;;;2.00;;
73515;SDS011;61763;51.416;5.442;2023-12-20T14:04:56;13.25;;;2.03;;
73515;SDS011;61763;51.416;5.442;2023-12-20T14:07:21;12.80;;;1.95;;
73515;SDS011;61763;51.416;5.442;2023-12-20T14:09:47;15.82;;;2.15;;
73515;SDS011;61763;51.416;5.442;2023-12-20T14:12:13;9.57;;;2.60;;
73515;SDS011;61763;51.416;5.442;2023-12-20T14:14:39;12.05;;;2.13;;
73515;SDS011;61763;51.416;5.442;2023-12-20T14:17:04;11.65;;;2.47;;
73515;SDS011;61763;51.416;5.442;2023-12-20T14:19:31;8.63;;;1.92;;
73515;SDS011;61763;51.416;5.442;2023-12-20T14:21:57;12.98;;;2.83;;
73515;SDS011;61763;51.416;5.442;2023-12-20T14:24:26;12.55;;;2.00;;
73515;SDS011;61763;51.416;5.442;2023-12-20T14:26:51;7.65;;;1.67;;
73515;SDS011;61763;51.416;5.442;2023-12-20T14:29:17;14.25;;;2.42;;
73515;SDS011;61763;51.416;5.442;2023-12-20T14:31:43;8.93;;;2.08;;
73515;SDS011;61763;51.416;5.442;2023-12-20T14:34:08;10.13;;;1.95;;
73515;SDS011;61763;51.416;5.442;2023-12-20T14:36:34;10.73;;;2.47;;
73515;SDS011;61763;51.416;5.442;2023-12-20T14:39:00;11.82;;;1.80;;